createdAt,value
2018-04-19T00:01:06.087Z,14.74
2018-04-19T00:03:33.625Z,14.69
2018-04-19T00:06:01.179Z,14.82
2018-04-19T00:08:28.708Z,14.81
2018-04-19T00:10:56.274Z,14.88
2018-04-19T00:13:23.837Z,14.91
2018-04-19T00:15:51.361Z,14.97
2018-04-19T00:18:18.888Z,14.87
2018-04-19T00:20:46.453Z,14.93
2018-04-19T00:23:13.995Z,14.90
2018-04-19T00:25:41.518Z,14.83
2018-04-19T00:28:09.082Z,14.78
2018-04-19T00:30:36.647Z,14.65
2018-04-19T00:33:04.191Z,14.57
2018-04-19T00:35:31.755Z,14.48
2018-04-19T00:37:59.291Z,14.32
2018-04-19T00:40:26.815Z,14.29
2018-04-19T00:42:54.378Z,14.25
2018-04-19T00:45:21.906Z,14.16
2018-04-19T00:47:49.459Z,14.17
2018-04-19T00:50:16.987Z,14.18
2018-04-19T00:52:56.355Z,14.08
2018-04-19T00:55:23.890Z,13.87
2018-04-19T00:57:51.417Z,13.94
2018-04-19T01:00:18.982Z,13.88
2018-04-19T01:02:46.520Z,13.98
2018-04-19T01:05:14.155Z,13.83
2018-04-19T01:07:41.682Z,13.70
2018-04-19T01:10:09.206Z,13.59
2018-04-19T01:12:36.773Z,13.63
2018-04-19T01:15:04.301Z,13.60
2018-04-19T01:17:31.835Z,13.61
2018-04-19T01:19:59.381Z,13.50
2018-04-19T01:22:26.904Z,13.57
2018-04-19T01:27:27.207Z,13.62
2018-04-19T01:29:54.735Z,13.64
2018-04-19T01:32:22.267Z,13.65
2018-04-19T01:34:49.791Z,13.76
2018-04-19T01:37:17.345Z,13.69
2018-04-19T01:39:44.866Z,13.60
2018-04-19T01:42:12.434Z,13.67
2018-04-19T01:44:39.969Z,13.82
2018-04-19T01:47:07.523Z,13.88
2018-04-19T01:49:35.057Z,13.84
2018-04-19T01:52:02.576Z,13.85
2018-04-19T01:54:30.106Z,13.90
2018-04-19T01:56:57.633Z,13.92
2018-04-19T01:59:25.154Z,13.94
2018-04-19T02:01:52.674Z,14.01
2018-04-19T02:04:20.246Z,13.99
2018-04-19T02:06:47.769Z,13.91
2018-04-19T02:09:15.294Z,13.74
2018-04-19T02:11:42.816Z,13.74
2018-04-19T02:14:10.342Z,13.77
2018-04-19T02:16:37.885Z,13.77
2018-04-19T02:19:05.411Z,13.78
2018-04-19T02:21:32.947Z,13.70
2018-04-19T02:24:00.470Z,13.72
2018-04-19T02:26:27.994Z,13.74
2018-04-19T02:28:55.522Z,13.71
2018-04-19T02:31:23.050Z,13.72
2018-04-19T02:33:50.578Z,13.68
2018-04-19T02:36:18.150Z,13.53
2018-04-19T02:38:45.683Z,13.54
2018-04-19T02:41:13.254Z,13.55
2018-04-19T02:43:40.786Z,13.60
2018-04-19T02:46:08.311Z,13.60
2018-04-19T02:48:35.841Z,13.57
2018-04-19T02:51:03.375Z,13.56
2018-04-19T02:53:30.902Z,13.58
2018-04-19T02:55:58.443Z,13.53
2018-04-19T02:58:26.002Z,13.53
2018-04-19T03:00:53.539Z,13.50
2018-04-19T03:03:21.077Z,13.55
2018-04-19T03:05:48.615Z,13.44
2018-04-19T03:08:16.129Z,13.40
2018-04-19T03:10:43.643Z,13.45
2018-04-19T03:13:11.164Z,13.30
2018-04-19T03:15:38.681Z,13.13
2018-04-19T03:18:06.196Z,13.15
2018-04-19T03:20:33.745Z,13.22
2018-04-19T03:23:01.251Z,13.32
2018-04-19T03:25:28.771Z,13.33
2018-04-19T03:27:56.287Z,13.28
2018-04-19T03:30:23.812Z,13.12
2018-04-19T03:32:51.324Z,13.11
2018-04-19T03:35:18.831Z,13.03
2018-04-19T03:37:46.355Z,13.04
2018-04-19T03:40:13.867Z,13.06
2018-04-19T03:42:41.367Z,12.95
2018-04-19T03:45:08.867Z,12.93
2018-04-19T03:47:36.419Z,13.06
2018-04-19T03:50:03.935Z,12.97
2018-04-19T03:52:31.440Z,12.99
2018-04-19T03:54:58.947Z,13.12
2018-04-19T03:57:26.461Z,13.17
2018-04-19T03:59:53.982Z,13.10
2018-04-19T04:02:21.484Z,13.13
2018-04-19T04:04:48.988Z,13.29
2018-04-19T04:07:16.495Z,13.24
2018-04-19T04:09:44.048Z,13.35
2018-04-19T04:12:11.600Z,13.24
2018-04-19T04:14:39.144Z,13.33
2018-04-19T04:17:18.513Z,13.61
2018-04-19T04:19:57.993Z,13.81
2018-04-19T04:22:37.368Z,13.79
2018-04-19T04:25:05.739Z,13.97
2018-04-19T04:27:33.283Z,14.18
2018-04-19T04:30:00.833Z,14.36
2018-04-19T04:32:28.365Z,14.11
2018-04-19T04:34:55.915Z,14.29
2018-04-19T04:37:23.435Z,14.53
2018-04-19T04:39:50.982Z,14.84
2018-04-19T04:42:18.499Z,15.30
2018-04-19T04:44:46.005Z,15.50
2018-04-19T04:47:13.525Z,15.16
2018-04-19T04:49:41.029Z,15.87
2018-04-19T04:52:08.539Z,16.10
2018-04-19T04:54:36.056Z,16.47
2018-04-19T04:57:03.570Z,16.45
2018-04-19T04:59:31.093Z,16.32
2018-04-19T05:01:58.594Z,16.95
2018-04-19T05:04:26.153Z,16.40
2018-04-19T05:06:53.720Z,16.38
2018-04-19T05:09:21.235Z,15.77
2018-04-19T05:11:48.772Z,16.38
2018-04-19T05:14:16.332Z,16.61
2018-04-19T05:16:43.847Z,17.09
2018-04-19T05:19:11.355Z,17.64
2018-04-19T05:21:38.881Z,18.38
2018-04-19T05:24:06.425Z,18.12
2018-04-19T05:26:33.974Z,18.02
2018-04-19T05:29:01.484Z,18.51
2018-04-19T05:31:29.028Z,18.61
2018-04-19T05:33:56.543Z,18.86
2018-04-19T05:36:24.091Z,18.81
2018-04-19T05:38:51.605Z,18.88
2018-04-19T05:41:19.233Z,19.16
2018-04-19T05:43:46.901Z,19.22
2018-04-19T05:46:14.414Z,19.01
2018-04-19T05:48:41.943Z,19.46
2018-04-19T05:51:09.448Z,19.65
2018-04-19T05:53:37.043Z,19.65
2018-04-19T05:56:04.557Z,19.52
2018-04-19T05:58:32.087Z,19.50
2018-04-19T06:00:59.598Z,19.58
2018-04-19T06:03:27.106Z,19.54
2018-04-19T06:05:54.644Z,20.24
2018-04-19T06:08:22.159Z,20.77
2018-04-19T06:10:49.754Z,21.33
2018-04-19T06:13:17.263Z,20.53
2018-04-19T06:15:44.764Z,20.74
2018-04-19T06:18:12.297Z,21.04
2018-04-19T06:20:39.875Z,20.99
2018-04-19T06:23:07.404Z,20.94
2018-04-19T06:25:34.921Z,21.58
2018-04-19T06:28:02.452Z,22.34
2018-04-19T06:30:29.968Z,21.77
2018-04-19T06:32:57.469Z,22.87
2018-04-19T06:35:25.011Z,23.22
2018-04-19T06:37:52.515Z,21.92
2018-04-19T06:40:20.060Z,21.41
2018-04-19T06:42:47.577Z,21.60
2018-04-19T06:45:15.088Z,22.70
2018-04-19T06:47:42.637Z,23.31
2018-04-19T06:50:10.299Z,23.77
2018-04-19T06:52:37.807Z,22.99
2018-04-19T06:55:05.307Z,22.49
2018-04-19T06:57:32.841Z,23.00
2018-04-19T07:00:00.395Z,23.47
2018-04-19T07:02:27.935Z,24.74
2018-04-19T07:04:55.440Z,24.57
2018-04-19T07:07:22.952Z,24.26
2018-04-19T07:09:50.573Z,23.61
2018-04-19T07:12:18.133Z,24.17
2018-04-19T07:14:45.732Z,23.29
2018-04-19T07:17:13.231Z,24.20
2018-04-19T07:19:40.755Z,25.21
2018-04-19T07:22:08.266Z,24.27
2018-04-19T07:24:35.799Z,23.62
2018-04-19T07:27:03.348Z,23.11
2018-04-19T07:29:30.896Z,24.10
2018-04-19T07:31:59.319Z,24.12
2018-04-19T07:34:26.867Z,23.65
2018-04-19T07:36:54.375Z,24.62
2018-04-19T07:39:21.889Z,24.06
2018-04-19T07:41:49.431Z,23.89
2018-04-19T07:44:16.971Z,25.16
2018-04-19T07:46:44.480Z,25.31
2018-04-19T07:49:11.991Z,25.72
2018-04-19T07:51:39.555Z,26.18
2018-04-19T07:54:07.143Z,24.55
2018-04-19T07:56:34.718Z,25.36
2018-04-19T07:59:02.237Z,25.67
2018-04-19T08:01:29.747Z,25.86
2018-04-19T08:03:57.287Z,24.53
2018-04-19T08:06:24.787Z,24.83
2018-04-19T08:08:52.398Z,25.64
2018-04-19T08:11:19.978Z,26.13
2018-04-19T08:13:47.448Z,25.82
2018-04-19T08:16:14.958Z,25.50
2018-04-19T08:18:42.488Z,25.97
2018-04-19T08:21:10.004Z,25.18
2018-04-19T08:23:37.570Z,25.06
2018-04-19T08:26:05.129Z,25.52
2018-04-19T08:28:32.636Z,25.56
2018-04-19T08:31:00.152Z,26.00
2018-04-19T08:33:27.709Z,26.19
2018-04-19T08:35:55.254Z,26.05
2018-04-19T08:38:22.767Z,27.09
2018-04-19T08:40:50.306Z,27.35
2018-04-19T08:43:17.823Z,27.82
2018-04-19T08:45:45.390Z,26.94
2018-04-19T08:48:12.892Z,26.33
2018-04-19T08:50:40.401Z,26.95
2018-04-19T08:53:07.979Z,26.89
2018-04-19T08:55:35.489Z,27.08
2018-04-19T08:58:03.035Z,26.83
2018-04-19T09:00:30.579Z,27.11
2018-04-19T09:02:58.091Z,27.48
2018-04-19T09:05:25.611Z,27.35
2018-04-19T09:07:53.163Z,28.53
2018-04-19T09:10:20.720Z,29.64
2018-04-19T09:12:48.229Z,28.08
2018-04-19T09:15:15.796Z,26.99
2018-04-19T09:17:43.373Z,27.13
2018-04-19T09:20:10.883Z,27.47
2018-04-19T09:22:38.416Z,28.73
2018-04-19T09:25:05.939Z,27.11
2018-04-19T09:27:33.447Z,26.53
2018-04-19T09:30:01.069Z,27.27
2018-04-19T09:32:28.586Z,26.97
2018-04-19T09:34:56.197Z,26.97
2018-04-19T09:37:23.695Z,26.80
2018-04-19T09:39:51.238Z,28.25
2018-04-19T09:42:18.740Z,27.00
2018-04-19T09:44:46.248Z,27.24
2018-04-19T09:47:13.755Z,27.72
2018-04-19T09:49:41.284Z,27.74
2018-04-19T09:52:08.865Z,27.02
2018-04-19T09:54:36.381Z,27.75
2018-04-19T09:57:03.897Z,27.93
2018-04-19T09:59:31.408Z,28.24
2018-04-19T10:02:03.876Z,29.12
2018-04-19T10:04:33.803Z,28.44
2018-04-19T10:07:01.311Z,28.54
2018-04-19T10:09:28.822Z,28.62
2018-04-19T10:11:56.336Z,27.89
2018-04-19T10:14:23.873Z,28.78
2018-04-19T10:16:51.371Z,28.77
2018-04-19T10:19:19.049Z,29.30
2018-04-19T10:21:46.561Z,28.98
2018-04-19T10:24:14.065Z,28.63
2018-04-19T10:26:41.570Z,28.54
2018-04-19T10:29:09.077Z,29.80
2018-04-19T10:31:36.589Z,30.40
2018-04-19T10:34:04.113Z,30.16
2018-04-19T10:36:31.632Z,31.23
2018-04-19T10:38:59.143Z,32.23
2018-04-19T10:41:26.881Z,32.87
2018-04-19T10:43:54.397Z,31.02
2018-04-19T10:46:21.909Z,31.29
2018-04-19T10:48:49.425Z,30.55
2018-04-19T10:51:16.946Z,30.67
2018-04-19T10:53:44.475Z,30.40
2018-04-19T10:56:11.979Z,30.26
2018-04-19T10:58:39.487Z,30.05
2018-04-19T11:01:07.022Z,29.29
2018-04-19T11:03:34.538Z,29.89
2018-04-19T11:06:02.100Z,29.19
2018-04-19T11:08:29.604Z,30.13
2018-04-19T11:10:57.111Z,29.93
2018-04-19T11:13:24.632Z,30.90
2018-04-19T11:15:52.281Z,30.51
2018-04-19T11:18:19.806Z,29.22
2018-04-19T11:20:47.322Z,28.46
2018-04-19T11:23:14.827Z,27.60
2018-04-19T11:25:42.324Z,28.86
2018-04-19T11:28:09.865Z,30.20
2018-04-19T11:30:37.447Z,30.55
2018-04-19T11:33:04.932Z,31.72
2018-04-19T11:35:32.437Z,31.91
2018-04-19T11:37:59.943Z,31.45
2018-04-19T11:40:27.457Z,28.34
2018-04-19T11:42:55.012Z,28.06
2018-04-19T11:45:22.586Z,29.42
2018-04-19T11:47:50.138Z,29.44
2018-04-19T11:50:17.687Z,29.02
2018-04-19T11:52:45.207Z,29.23
2018-04-19T11:55:12.869Z,29.83
2018-04-19T11:57:40.380Z,30.41
2018-04-19T12:00:07.903Z,30.60
2018-04-19T12:02:35.412Z,30.22
2018-04-19T12:05:02.921Z,29.96
2018-04-19T12:07:30.490Z,30.01
2018-04-19T12:09:57.993Z,30.92
2018-04-19T12:12:25.507Z,30.59
2018-04-19T12:14:53.071Z,28.72
2018-04-19T12:17:20.587Z,28.34
2018-04-19T12:19:48.105Z,28.71
2018-04-19T12:22:15.696Z,28.12
2018-04-19T12:24:43.211Z,26.88
2018-04-19T12:27:10.724Z,26.64
2018-04-19T12:29:38.242Z,26.60
2018-04-19T12:32:05.770Z,26.87
2018-04-19T12:34:33.342Z,27.24
2018-04-19T12:37:00.934Z,26.85
2018-04-19T12:39:28.451Z,27.52
2018-04-19T12:41:55.956Z,27.96
2018-04-19T12:44:23.516Z,28.30
2018-04-19T12:46:51.075Z,28.79
2018-04-19T12:49:18.593Z,27.49
2018-04-19T12:51:46.107Z,27.25
2018-04-19T12:54:13.647Z,27.19
2018-04-19T12:56:41.159Z,26.97
2018-04-19T12:59:08.698Z,27.12
2018-04-19T13:01:36.243Z,26.86
2018-04-19T13:04:03.748Z,26.49
2018-04-19T13:06:31.364Z,27.09
2018-04-19T13:08:58.816Z,27.04
2018-04-19T13:11:26.463Z,26.50
2018-04-19T13:13:53.974Z,26.21
2018-04-19T13:16:21.534Z,25.95
2018-04-19T13:18:49.084Z,25.60
2018-04-19T13:21:16.606Z,24.89
2018-04-19T13:23:44.162Z,24.99
2018-04-19T13:26:11.680Z,25.35
2018-04-19T13:28:39.249Z,25.17
2018-04-19T13:31:06.792Z,24.78
2018-04-19T13:33:34.312Z,24.59
2018-04-19T13:36:01.864Z,24.61
2018-04-19T13:38:29.400Z,24.54
2018-04-19T13:40:56.943Z,24.74
2018-04-19T13:43:24.449Z,24.81
2018-04-19T13:45:51.970Z,25.25
2018-04-19T13:48:19.484Z,25.34
2018-04-19T13:50:46.990Z,24.77
2018-04-19T13:53:14.491Z,24.75
2018-04-19T13:55:42.026Z,24.90
2018-04-19T13:58:09.538Z,24.68
2018-04-19T14:00:37.053Z,24.59
2018-04-19T14:03:04.600Z,24.85
2018-04-19T14:05:32.171Z,24.74
2018-04-19T14:07:59.675Z,24.51
2018-04-19T14:10:27.191Z,24.30
2018-04-19T14:12:54.739Z,23.96
2018-04-19T14:15:22.375Z,23.46
2018-04-19T14:17:49.880Z,23.33
2018-04-19T14:20:17.394Z,23.13
2018-04-19T14:22:44.978Z,23.26
2018-04-19T14:25:12.508Z,23.28
2018-04-19T14:27:40.020Z,23.13
2018-04-19T14:30:07.523Z,22.88
2018-04-19T14:32:35.032Z,22.86
2018-04-19T14:35:02.575Z,22.89
2018-04-19T14:37:30.071Z,22.63
2018-04-19T14:39:57.619Z,23.00
2018-04-19T14:42:25.132Z,22.84
2018-04-19T14:44:52.634Z,22.98
2018-04-19T14:47:20.161Z,23.18
2018-04-19T14:49:47.703Z,22.96
2018-04-19T14:52:15.211Z,22.89
2018-04-19T14:54:42.713Z,22.76
2018-04-19T14:57:10.214Z,22.70
2018-04-19T14:59:37.724Z,22.59
2018-04-19T15:02:05.234Z,22.80
2018-04-19T15:04:32.777Z,22.62
2018-04-19T15:07:00.289Z,22.72
2018-04-19T15:09:27.828Z,22.83
2018-04-19T15:11:55.339Z,22.69
2018-04-19T15:14:22.894Z,22.42
2018-04-19T15:16:50.444Z,22.65
2018-04-19T15:19:17.951Z,22.50
2018-04-19T15:21:45.474Z,22.72
2018-04-19T15:24:13.038Z,22.69
2018-04-19T15:26:40.539Z,22.72
2018-04-19T15:29:08.064Z,22.63
2018-04-19T15:31:35.572Z,22.64
2018-04-19T15:34:03.117Z,22.40
2018-04-19T15:36:31.641Z,22.17
2018-04-19T15:38:59.186Z,21.98
2018-04-19T15:41:26.788Z,22.09
2018-04-19T15:43:54.335Z,22.11
2018-04-19T15:46:21.823Z,22.24
2018-04-19T15:48:49.339Z,22.20
2018-04-19T15:51:16.839Z,22.12
2018-04-19T15:53:44.340Z,21.99
2018-04-19T15:56:11.860Z,21.91
2018-04-19T15:58:39.802Z,21.71
2018-04-19T16:01:07.371Z,21.75
2018-04-19T16:03:34.929Z,21.88
2018-04-19T16:06:02.474Z,21.70
2018-04-19T16:08:29.988Z,21.73
2018-04-19T16:10:57.543Z,21.63
2018-04-19T16:13:25.067Z,21.69
2018-04-19T16:15:52.576Z,21.65
2018-04-19T16:18:20.121Z,21.51
2018-04-19T16:20:47.624Z,21.34
2018-04-19T16:23:15.188Z,21.53
2018-04-19T16:25:42.691Z,21.43
2018-04-19T16:28:10.218Z,21.43
2018-04-19T16:30:37.722Z,21.39
2018-04-19T16:33:05.262Z,21.25
2018-04-19T16:35:32.782Z,21.32
2018-04-19T16:38:00.303Z,21.33
2018-04-19T16:40:27.923Z,21.30
2018-04-19T16:42:55.439Z,21.16
2018-04-19T16:45:22.975Z,21.12
2018-04-19T16:47:50.479Z,21.12
2018-04-19T16:50:17.978Z,21.05
2018-04-19T16:52:45.504Z,21.05
2018-04-19T16:55:13.495Z,20.99
2018-04-19T16:57:40.994Z,20.97
2018-04-19T17:00:08.655Z,20.96
2018-04-19T17:02:36.174Z,20.89
2018-04-19T17:05:03.705Z,20.96
2018-04-19T17:07:31.210Z,20.77
2018-04-19T17:09:58.718Z,20.72
2018-04-19T17:12:26.291Z,20.64
2018-04-19T17:14:53.798Z,20.64
2018-04-19T17:17:21.368Z,20.60
2018-04-19T17:19:50.058Z,20.45
2018-04-19T17:22:17.631Z,20.43
2018-04-19T17:24:45.123Z,20.50
2018-04-19T17:27:12.634Z,20.44
2018-04-19T17:29:40.580Z,20.35
2018-04-19T17:32:08.239Z,20.29
2018-04-19T17:34:36.825Z,20.25
2018-04-19T17:37:04.360Z,20.21
2018-04-19T17:39:32.043Z,20.18
2018-04-19T17:41:59.695Z,20.20
2018-04-19T17:44:27.359Z,20.16
2018-04-19T17:46:54.881Z,20.23
2018-04-19T17:49:22.870Z,20.10
2018-04-19T17:51:50.399Z,20.11
2018-04-19T17:54:17.982Z,19.90
2018-04-19T17:56:46.463Z,19.87
2018-04-19T17:59:14.006Z,20.07
2018-04-19T18:01:42.329Z,19.75
2018-04-19T18:04:09.962Z,19.58
2018-04-19T18:06:37.509Z,19.54
2018-04-19T18:09:05.828Z,19.68
2018-04-19T18:11:34.150Z,19.80
2018-04-19T18:14:01.657Z,19.69
2018-04-19T18:16:30.113Z,19.52
2018-04-19T18:18:57.640Z,19.53
2018-04-19T18:21:25.151Z,19.38
2018-04-19T18:23:52.762Z,19.44
2018-04-19T18:26:20.267Z,19.44
2018-04-19T18:28:47.806Z,19.46
2018-04-19T18:31:15.370Z,19.40
2018-04-19T18:33:42.922Z,19.38
2018-04-19T18:36:10.905Z,19.31
2018-04-19T18:38:38.403Z,19.26
2018-04-19T18:41:05.959Z,18.93
2018-04-19T18:43:33.460Z,18.80
2018-04-19T18:46:00.962Z,18.84
2018-04-19T18:48:28.469Z,18.94
2018-04-19T18:50:55.985Z,18.73
2018-04-19T18:53:23.556Z,18.72
2018-04-19T18:55:51.100Z,18.68
2018-04-19T18:58:18.631Z,18.80
2018-04-19T19:00:46.196Z,18.80
2018-04-19T19:03:13.721Z,18.74
2018-04-19T19:05:41.228Z,18.76
2018-04-19T19:08:08.733Z,18.70
2018-04-19T19:10:36.246Z,18.63
2018-04-19T19:13:03.815Z,18.54
2018-04-19T19:18:59.073Z,18.26
2018-04-19T19:21:26.590Z,18.26
2018-04-19T19:23:54.185Z,18.18
2018-04-19T19:26:21.797Z,18.27
2018-04-19T19:28:49.300Z,18.30
2018-04-19T19:31:16.885Z,18.22
2018-04-19T19:33:44.444Z,18.05
2018-04-19T19:36:12.020Z,18.12
2018-04-19T19:38:39.560Z,18.24
2018-04-19T19:41:07.061Z,18.07
2018-04-19T19:43:34.599Z,18.08
2018-04-19T19:46:02.143Z,18.10
2018-04-19T19:48:29.647Z,18.04
2018-04-19T19:50:57.138Z,17.86
2018-04-19T19:53:25.452Z,17.87
2018-04-19T19:55:53.003Z,17.91
2018-04-19T19:58:20.554Z,18.01
2018-04-19T20:00:48.063Z,17.82
2018-04-19T20:03:15.604Z,17.82
2018-04-19T20:05:43.122Z,17.63
2018-04-19T20:08:10.636Z,17.78
2018-04-19T20:10:38.166Z,17.71
2018-04-19T20:13:05.662Z,17.73
2018-04-19T20:15:33.237Z,17.62
2018-04-19T20:18:00.775Z,17.55
2018-04-19T20:20:28.287Z,17.49
2018-04-19T20:22:55.788Z,17.45
2018-04-19T20:25:23.328Z,17.55
2018-04-19T20:27:50.828Z,17.42
2018-04-19T20:30:18.370Z,17.41
2018-04-19T20:32:45.923Z,17.46
2018-04-19T20:35:13.427Z,17.47
2018-04-19T20:37:40.926Z,17.46
2018-04-19T20:40:08.431Z,17.47
2018-04-19T20:42:35.938Z,17.32
2018-04-19T20:45:03.444Z,17.35
2018-04-19T20:47:30.931Z,17.42
2018-04-19T20:49:58.429Z,17.47
2018-04-19T20:52:25.923Z,17.51
2018-04-19T20:54:53.477Z,17.37
2018-04-19T20:57:21.028Z,17.44
2018-04-19T20:59:48.520Z,17.39
2018-04-19T21:02:16.028Z,17.45
2018-04-19T21:04:43.588Z,17.42
2018-04-19T21:07:11.099Z,17.34
2018-04-19T21:09:38.692Z,17.37
2018-04-19T21:12:06.200Z,17.36
2018-04-19T21:14:33.700Z,17.31
2018-04-19T21:17:01.211Z,17.30
2018-04-19T21:19:29.087Z,17.24
2018-04-19T21:21:56.594Z,17.16
2018-04-19T21:24:24.102Z,17.20
2018-04-19T21:26:51.611Z,17.22
2018-04-19T21:29:19.112Z,17.08
2018-04-19T21:31:46.609Z,16.95
2018-04-19T21:34:14.159Z,16.96
2018-04-19T21:36:41.668Z,16.92
2018-04-19T21:39:09.205Z,16.94
2018-04-19T21:41:36.763Z,16.80
2018-04-19T21:44:04.276Z,16.72
2018-04-19T21:46:31.769Z,16.76
2018-04-19T21:48:59.264Z,16.77
2018-04-19T21:51:26.819Z,16.64
2018-04-19T21:53:54.327Z,16.67
2018-04-19T21:56:21.834Z,16.63
2018-04-19T21:58:49.337Z,16.56
2018-04-19T22:01:16.835Z,16.71
2018-04-19T22:03:44.361Z,16.68
2018-04-19T22:06:11.928Z,16.76
2018-04-19T22:08:39.436Z,16.80
2018-04-19T22:11:06.947Z,16.75
2018-04-19T22:13:34.476Z,16.73
2018-04-19T22:16:02.013Z,16.48
2018-04-19T22:18:29.577Z,16.45
2018-04-19T22:20:57.104Z,16.54
2018-04-19T22:23:24.685Z,16.57
2018-04-19T22:25:52.229Z,16.59
2018-04-19T22:28:19.771Z,16.56
2018-04-19T22:30:47.358Z,16.51
2018-04-19T22:33:14.906Z,16.50
2018-04-19T22:35:42.408Z,16.48
2018-04-19T22:38:10.022Z,16.38
2018-04-19T22:40:37.543Z,16.49
2018-04-19T22:43:05.085Z,16.35
2018-04-19T22:45:32.664Z,16.39
2018-04-19T22:48:00.196Z,16.51
2018-04-19T22:50:27.785Z,16.38
2018-04-19T22:52:55.376Z,16.36
2018-04-19T22:55:22.922Z,16.30
2018-04-19T22:57:50.456Z,16.37
2018-04-19T23:00:18.112Z,16.33
2018-04-19T23:02:45.621Z,16.41
2018-04-19T23:05:13.919Z,16.37
2018-04-19T23:07:41.460Z,16.42
2018-04-19T23:10:08.993Z,16.54
2018-04-19T23:12:36.514Z,16.49
2018-04-19T23:15:04.049Z,16.48
2018-04-19T23:17:31.586Z,16.32
2018-04-19T23:19:59.143Z,16.18
2018-04-19T23:22:34.430Z,16.08
2018-04-19T23:25:01.990Z,15.96
2018-04-19T23:27:29.489Z,16.08
2018-04-19T23:29:57.026Z,16.10
2018-04-19T23:32:24.580Z,16.07
2018-04-19T23:34:52.125Z,16.04
2018-04-19T23:37:19.664Z,16.10
2018-04-19T23:39:47.202Z,16.16
2018-04-19T23:42:14.763Z,16.21
2018-04-19T23:44:42.311Z,16.26
2018-04-19T23:47:09.835Z,16.12
2018-04-19T23:49:37.369Z,16.12
2018-04-19T23:52:04.902Z,16.09
2018-04-19T23:54:32.431Z,16.12
2018-04-19T23:56:59.939Z,16.10
2018-04-19T23:59:27.478Z,16.13
